createdAt,value
2023-04-13T00:04:23.267Z,1.42
2023-04-13T00:09:31.461Z,0.93
2023-04-13T00:14:39.404Z,0.80
2023-04-13T00:19:43.540Z,1.17
2023-04-13T00:24:46.065Z,1.15
2023-04-13T00:29:49.570Z,1.20
2023-04-13T00:34:52.306Z,0.93
2023-04-13T00:39:54.270Z,1.23
2023-04-13T00:44:56.951Z,1.27
2023-04-13T00:50:06.825Z,0.93
2023-04-13T00:55:15.121Z,1.10
2023-04-13T01:00:22.548Z,0.80
2023-04-13T01:05:27.130Z,0.73
2023-04-13T01:10:50.779Z,0.93
2023-04-13T01:16:20.881Z,0.80
2023-04-13T01:21:28.844Z,1.20
2023-04-13T01:26:47.861Z,0.85
2023-04-13T01:31:55.049Z,0.88
2023-04-13T01:36:58.264Z,1.70
2023-04-13T01:42:01.565Z,0.90
2023-04-13T01:47:16.653Z,0.95
2023-04-13T01:52:41.648Z,1.02
2023-04-13T01:57:49.051Z,1.17
2023-04-13T02:02:57.229Z,0.98
2023-04-13T02:08:01.911Z,0.65
2023-04-13T02:13:10.181Z,0.80
2023-04-13T02:18:18.896Z,1.13
2023-04-13T02:23:21.707Z,0.80
2023-04-13T02:28:24.237Z,0.80
2023-04-13T02:33:38.582Z,1.00
2023-04-13T02:38:40.968Z,0.73
2023-04-13T02:43:53.073Z,0.80
2023-04-13T02:48:58.651Z,1.20
2023-04-13T02:54:09.877Z,1.23
2023-04-13T03:04:18.392Z,1.42
2023-04-13T03:09:23.146Z,1.33
2023-04-13T03:14:30.390Z,1.23
2023-04-13T03:19:41.998Z,1.00
2023-04-13T03:24:45.486Z,1.23
2023-04-13T03:29:58.923Z,1.33
2023-04-13T03:41:14.541Z,1.27
2023-04-13T03:46:23.373Z,1.52
2023-04-13T03:51:28.265Z,1.50
2023-04-13T03:56:32.305Z,1.40
2023-04-13T04:01:39.835Z,1.60
2023-04-13T04:06:47.624Z,1.60
2023-04-13T04:11:57.047Z,1.95
2023-04-13T04:17:15.182Z,1.77
2023-04-13T04:22:24.742Z,1.40
2023-04-13T04:27:28.190Z,1.88
2023-04-13T04:32:37.543Z,1.77
2023-04-13T04:37:49.841Z,1.90
2023-04-13T04:42:54.894Z,1.70
2023-04-13T04:48:06.196Z,1.20
2023-04-13T04:53:10.021Z,1.42
2023-04-13T04:58:12.619Z,1.75
2023-04-13T05:03:23.394Z,1.63
2023-04-13T05:08:36.931Z,1.42
2023-04-13T05:13:41.340Z,1.23
2023-04-13T05:18:59.717Z,1.20
2023-04-13T05:24:22.875Z,1.02
2023-04-13T05:29:26.729Z,1.13
2023-04-13T05:34:29.421Z,1.20
2023-04-13T05:39:42.268Z,1.67
2023-04-13T05:44:46.006Z,0.75
2023-04-13T05:49:52.551Z,1.95
2023-04-13T05:54:58.075Z,1.25
2023-04-13T06:00:00.091Z,1.80
2023-04-13T06:05:15.948Z,1.30
2023-04-13T06:10:19.601Z,1.50
2023-04-13T06:15:21.699Z,1.52
2023-04-13T06:20:23.636Z,1.70
2023-04-13T06:25:25.558Z,1.70
2023-04-13T06:30:27.324Z,1.30
2023-04-13T06:35:33.234Z,1.10
2023-04-13T06:40:35.433Z,1.40
2023-04-13T06:45:40.593Z,1.55
2023-04-13T06:50:46.761Z,1.27
2023-04-13T06:55:48.553Z,1.52
2023-04-13T07:00:51.012Z,1.77
2023-04-13T07:05:52.813Z,1.77
2023-04-13T07:10:55.288Z,1.55
2023-04-13T07:16:05.448Z,2.22
2023-04-13T07:21:10.355Z,3.35
2023-04-13T07:26:27.559Z,1.98
2023-04-13T07:31:30.769Z,2.45
2023-04-13T07:36:32.780Z,2.20
2023-04-13T07:41:40.798Z,2.95
2023-04-13T07:46:47.904Z,2.72
2023-04-13T07:51:53.220Z,3.88
2023-04-13T07:56:56.721Z,3.63
2023-04-13T08:02:02.025Z,2.42
2023-04-13T08:07:07.322Z,2.40
2023-04-13T08:12:09.535Z,2.65
2023-04-13T08:17:15.353Z,3.65
2023-04-13T08:22:17.493Z,3.08
2023-04-13T08:27:19.821Z,2.20
2023-04-13T08:32:21.614Z,2.63
2023-04-13T08:37:28.153Z,2.92
2023-04-13T08:42:30.658Z,2.63
2023-04-13T08:47:33.677Z,2.85
2023-04-13T08:52:37.317Z,3.00
2023-04-13T08:57:41.164Z,2.83
2023-04-13T09:03:00.553Z,3.05
2023-04-13T09:08:08.106Z,2.40
2023-04-13T09:13:12.813Z,3.45
2023-04-13T09:18:16.116Z,2.60
2023-04-13T09:23:24.506Z,2.47
2023-04-13T09:28:26.640Z,2.63
2023-04-13T09:33:28.669Z,2.72
2023-04-13T09:38:31.323Z,2.10
2023-04-13T09:43:40.314Z,3.08
2023-04-13T09:48:42.100Z,2.80
2023-04-13T09:53:47.491Z,2.42
2023-04-13T09:58:50.463Z,2.65
2023-04-13T10:03:52.769Z,3.53
2023-04-13T10:08:54.555Z,2.78
2023-04-13T10:14:00.091Z,2.85
2023-04-13T10:19:29.527Z,2.58
2023-04-13T10:24:31.794Z,2.72
2023-04-13T10:29:35.411Z,2.58
2023-04-13T10:34:39.558Z,2.20
2023-04-13T10:39:41.219Z,2.95
2023-04-13T10:44:51.514Z,2.70
2023-04-13T10:49:53.257Z,2.97
2023-04-13T10:54:55.446Z,2.30
2023-04-13T10:59:59.329Z,2.47
2023-04-13T11:05:02.257Z,2.45
2023-04-13T11:10:05.974Z,1.98
2023-04-13T11:15:08.635Z,2.45
2023-04-13T11:20:11.383Z,2.63
2023-04-13T11:25:13.263Z,3.05
2023-04-13T11:30:15.562Z,2.65
2023-04-13T11:35:18.659Z,2.10
2023-04-13T11:40:27.414Z,2.53
2023-04-13T11:45:30.515Z,2.63
2023-04-13T11:50:32.779Z,2.42
2023-04-13T11:55:52.186Z,1.90
2023-04-13T12:00:58.330Z,1.83
2023-04-13T12:06:05.864Z,2.37
2023-04-13T12:11:38.979Z,2.45
2023-04-13T12:21:39.990Z,2.05
2023-04-13T12:27:16.978Z,2.45
2023-04-13T12:32:15.793Z,2.78
2023-04-13T12:37:17.625Z,3.15
2023-04-13T12:42:19.246Z,2.75
2023-04-13T12:47:21.070Z,2.75
2023-04-13T12:52:22.862Z,1.90
2023-04-13T12:57:28.542Z,2.72
2023-04-13T13:02:31.136Z,2.92
2023-04-13T13:07:32.989Z,2.28
2023-04-13T13:12:34.961Z,2.70
2023-04-13T13:17:40.546Z,3.20
2023-04-13T13:22:42.405Z,3.75
2023-04-13T13:32:48.758Z,2.42
2023-04-13T13:37:50.820Z,2.45
2023-04-13T13:42:52.942Z,2.97
2023-04-13T13:47:55.085Z,2.67
2023-04-13T13:53:20.700Z,3.38
2023-04-13T13:58:22.652Z,2.88
2023-04-13T14:03:24.604Z,3.75
2023-04-13T14:08:26.274Z,2.75
2023-04-13T14:13:27.933Z,3.13
2023-04-13T14:18:29.624Z,3.15
2023-04-13T14:23:32.091Z,2.70
2023-04-13T14:28:34.053Z,2.65
2023-04-13T14:33:37.668Z,3.35
2023-04-13T14:38:39.278Z,2.70
2023-04-13T14:43:40.958Z,3.00
2023-04-13T14:48:42.570Z,2.47
2023-04-13T14:53:44.484Z,3.08
2023-04-13T14:58:46.448Z,3.05
2023-04-13T15:03:48.994Z,3.15
2023-04-13T15:08:51.044Z,3.25
2023-04-13T15:13:52.630Z,2.63
2023-04-13T15:18:54.263Z,3.13
2023-04-13T15:23:55.854Z,3.00
2023-04-13T15:28:57.901Z,3.03
2023-04-13T15:33:59.694Z,2.97
2023-04-13T15:39:02.014Z,3.38
2023-04-13T15:44:05.710Z,3.03
2023-04-13T15:49:07.300Z,2.35
2023-04-13T15:54:08.981Z,3.03
2023-04-13T15:59:10.846Z,3.30
2023-04-13T16:04:12.686Z,4.35
2023-04-13T16:09:14.507Z,3.28
2023-04-13T16:14:17.402Z,2.95
2023-04-13T16:19:19.685Z,3.30
2023-04-13T16:24:21.414Z,3.03
2023-04-13T16:29:24.808Z,2.60
2023-04-13T16:34:27.976Z,3.10
2023-04-13T16:39:29.572Z,4.43
2023-04-13T16:44:31.232Z,2.53
2023-04-13T16:49:34.674Z,3.38
2023-04-13T16:54:37.231Z,3.55
2023-04-13T16:59:39.096Z,2.70
2023-04-13T17:04:40.876Z,3.88
2023-04-13T17:09:42.774Z,2.97
2023-04-13T17:14:45.516Z,3.30
2023-04-13T17:19:47.187Z,2.88
2023-04-13T17:24:49.203Z,3.20
2023-04-13T17:29:50.969Z,3.22
2023-04-13T17:34:52.852Z,3.13
2023-04-13T17:39:54.523Z,3.22
2023-04-13T17:44:56.658Z,2.53
2023-04-13T17:49:59.663Z,3.22
2023-04-13T17:55:01.389Z,3.35
2023-04-13T18:00:06.382Z,2.80
2023-04-13T18:05:15.172Z,3.92
2023-04-13T18:10:17.247Z,3.50
2023-04-13T18:15:18.930Z,3.00
2023-04-13T18:20:20.900Z,3.53
2023-04-13T18:25:22.553Z,3.10
2023-04-13T18:30:24.231Z,2.70
2023-04-13T18:35:25.950Z,3.08
2023-04-13T18:40:27.620Z,3.85
2023-04-13T18:45:29.297Z,2.63
2023-04-13T18:50:31.028Z,2.67
2023-04-13T18:55:33.205Z,2.53
2023-04-13T19:00:39.377Z,3.30
2023-04-13T19:05:41.028Z,2.47
2023-04-13T19:10:42.902Z,2.70
2023-04-13T19:15:44.559Z,2.70
2023-04-13T19:20:46.259Z,3.42
2023-04-13T19:25:47.940Z,3.70
2023-04-13T19:30:49.681Z,2.90
2023-04-13T19:35:52.485Z,2.38
2023-04-13T19:40:54.535Z,3.22
2023-04-13T19:45:56.272Z,2.95
2023-04-13T19:50:57.920Z,3.42
2023-04-13T19:55:59.614Z,3.28
2023-04-13T20:01:02.103Z,3.13
2023-04-13T20:06:06.576Z,2.50
2023-04-13T20:11:08.204Z,3.13
2023-04-13T20:16:10.754Z,2.85
2023-04-13T20:21:12.656Z,2.65
2023-04-13T20:26:14.393Z,2.40
2023-04-13T20:31:16.560Z,2.13
2023-04-13T20:36:21.191Z,2.20
2023-04-13T20:41:24.523Z,2.50
2023-04-13T20:46:33.844Z,2.05
2023-04-13T20:51:39.713Z,1.90
2023-04-13T20:56:42.271Z,2.10
2023-04-13T21:01:44.194Z,2.60
2023-04-13T21:06:46.769Z,2.40
2023-04-13T21:11:49.499Z,1.90
2023-04-13T21:16:52.496Z,2.83
2023-04-13T21:21:55.714Z,1.85
2023-04-13T21:26:58.714Z,2.15
2023-04-13T21:32:01.536Z,2.95
2023-04-13T21:37:03.394Z,2.38
2023-04-13T21:42:09.034Z,2.53
2023-04-13T21:47:10.646Z,2.92
2023-04-13T21:52:12.274Z,1.77
2023-04-13T21:57:13.885Z,2.30
2023-04-13T22:02:16.665Z,2.13
2023-04-13T22:07:20.432Z,3.13
2023-04-13T22:12:29.820Z,2.13
2023-04-13T22:17:32.087Z,2.30
2023-04-13T22:22:33.798Z,2.38
2023-04-13T22:27:38.932Z,2.63
2023-04-13T22:32:41.991Z,2.35
2023-04-13T22:37:43.707Z,2.28
2023-04-13T22:42:45.429Z,1.83
2023-04-13T22:47:47.046Z,2.80
2023-04-13T22:52:48.755Z,2.20
2023-04-13T22:57:50.666Z,2.50
2023-04-13T23:02:56.044Z,2.60
2023-04-13T23:07:57.907Z,2.78
2023-04-13T23:12:59.521Z,2.42
2023-04-13T23:18:02.737Z,2.08
2023-04-13T23:23:05.515Z,1.98
2023-04-13T23:28:07.408Z,2.30
2023-04-13T23:33:09.353Z,2.58
2023-04-13T23:38:11.191Z,2.45
2023-04-13T23:43:12.775Z,2.38
2023-04-13T23:48:14.424Z,2.63
2023-04-13T23:53:16.691Z,2.50
2023-04-13T23:58:18.351Z,2.60
